createdAt,value
2022-12-04T00:01:49.149Z,220.93
2022-12-04T00:04:18.374Z,224.15
2022-12-04T00:06:47.671Z,226.07
2022-12-04T00:09:16.745Z,224.50
2022-12-04T00:11:45.763Z,230.45
2022-12-04T00:14:15.119Z,238.60
2022-12-04T00:16:44.185Z,226.57
2022-12-04T00:19:13.264Z,223.00
2022-12-04T00:21:42.307Z,230.30
2022-12-04T00:24:11.364Z,249.20
2022-12-04T00:26:40.558Z,238.38
2022-12-04T00:29:09.680Z,242.25
2022-12-04T00:31:38.938Z,239.02
2022-12-04T00:34:08.957Z,249.70
2022-12-04T00:36:38.092Z,244.95
2022-12-04T00:39:07.400Z,238.20
2022-12-04T00:41:37.222Z,242.40
2022-12-04T00:44:06.409Z,248.23
2022-12-04T00:46:35.862Z,249.75
2022-12-04T00:49:05.333Z,248.07
2022-12-04T00:51:34.642Z,249.93
2022-12-04T00:54:03.533Z,239.60
2022-12-04T00:56:32.817Z,240.98
2022-12-04T00:59:02.690Z,241.98
2022-12-04T01:01:37.418Z,237.50
2022-12-04T01:04:08.038Z,244.27
2022-12-04T01:06:40.833Z,245.50
2022-12-04T01:09:10.709Z,243.48
2022-12-04T01:11:41.801Z,247.63
2022-12-04T01:14:11.939Z,241.65
2022-12-04T01:16:42.541Z,240.48
2022-12-04T01:19:14.728Z,249.23
2022-12-04T01:21:45.059Z,243.80
2022-12-04T01:24:14.912Z,245.43
2022-12-04T01:26:45.218Z,247.15
2022-12-04T01:29:15.188Z,243.07
2022-12-04T01:31:45.362Z,243.15
2022-12-04T01:34:15.354Z,248.93
2022-12-04T01:36:50.206Z,247.10
2022-12-04T01:39:20.572Z,243.98
2022-12-04T01:41:51.101Z,247.88
2022-12-04T01:44:26.799Z,307.33
2022-12-04T01:46:59.525Z,346.52
2022-12-04T01:49:35.882Z,295.13
2022-12-04T01:52:15.020Z,259.73
2022-12-04T01:54:49.276Z,249.23
2022-12-04T01:57:22.301Z,297.25
2022-12-04T02:02:34.715Z,278.88
2022-12-04T02:05:08.020Z,271.88
2022-12-04T02:07:39.242Z,252.90
2022-12-04T02:10:12.737Z,254.18
2022-12-04T02:13:07.275Z,255.68
2022-12-04T02:15:56.039Z,263.15
2022-12-04T02:18:32.931Z,268.25
2022-12-04T02:21:14.086Z,254.50
2022-12-04T02:24:02.428Z,241.90
2022-12-04T02:26:35.381Z,237.73
2022-12-04T02:29:58.645Z,264.70
2022-12-04T02:35:17.820Z,238.30
2022-12-04T02:37:58.904Z,247.02
2022-12-04T02:40:40.815Z,247.77
2022-12-04T02:43:17.048Z,249.52
2022-12-04T02:46:09.727Z,245.35
2022-12-04T02:51:16.340Z,229.23
2022-12-04T02:53:56.863Z,250.30
2022-12-04T02:56:32.983Z,256.63
2022-12-04T02:59:27.966Z,263.30
2022-12-04T03:02:04.914Z,248.48
2022-12-04T03:04:35.743Z,258.52
2022-12-04T03:07:17.081Z,259.67
2022-12-04T03:09:53.422Z,262.40
2022-12-04T03:12:46.545Z,266.70
2022-12-04T03:15:29.075Z,280.25
2022-12-04T03:18:02.546Z,287.05
2022-12-04T03:20:36.727Z,286.08
2022-12-04T03:23:21.902Z,287.20
2022-12-04T03:26:25.927Z,285.42
2022-12-04T03:29:22.819Z,295.88
2022-12-04T03:32:02.137Z,299.75
2022-12-04T03:34:43.156Z,296.73
2022-12-04T03:37:18.741Z,310.98
2022-12-04T03:39:58.735Z,307.25
2022-12-04T03:42:51.059Z,305.40
2022-12-04T03:45:20.883Z,292.80
2022-12-04T03:47:59.017Z,299.75
2022-12-04T03:50:40.064Z,276.90
2022-12-04T03:53:41.064Z,256.58
2022-12-04T03:56:17.157Z,241.95
2022-12-04T03:59:00.976Z,222.57
2022-12-04T04:01:37.860Z,218.60
2022-12-04T04:04:14.305Z,187.38
2022-12-04T04:06:52.382Z,182.05
2022-12-04T04:09:27.316Z,153.45
2022-12-04T04:12:15.628Z,115.40
2022-12-04T04:15:10.659Z,109.63
2022-12-04T04:18:03.438Z,106.55
2022-12-04T04:21:18.333Z,106.18
2022-12-04T04:24:09.812Z,103.90
2022-12-04T04:26:48.619Z,100.85
2022-12-04T04:29:18.643Z,101.65
2022-12-04T04:31:57.374Z,104.40
2022-12-04T04:34:36.894Z,112.07
2022-12-04T04:37:25.821Z,115.13
2022-12-04T04:40:10.697Z,119.63
2022-12-04T04:43:12.438Z,104.20
2022-12-04T04:46:14.737Z,98.13
2022-12-04T04:48:52.831Z,100.32
2022-12-04T04:51:23.591Z,102.45
2022-12-04T04:53:58.908Z,101.50
2022-12-04T04:56:28.884Z,100.10
2022-12-04T04:58:58.772Z,96.28
2022-12-04T05:01:30.183Z,93.97
2022-12-04T05:04:01.308Z,86.72
2022-12-04T05:06:31.179Z,80.93
2022-12-04T05:09:01.197Z,63.72
2022-12-04T05:11:30.582Z,72.03
2022-12-04T05:14:00.357Z,65.53
2022-12-04T05:16:30.394Z,66.30
2022-12-04T05:19:19.000Z,66.50
2022-12-04T05:21:49.048Z,74.15
2022-12-04T05:24:18.983Z,70.05
2022-12-04T05:26:48.820Z,64.60
2022-12-04T05:29:18.725Z,59.17
2022-12-04T05:31:48.740Z,63.40
2022-12-04T05:34:22.497Z,62.63
2022-12-04T05:36:54.932Z,65.93
2022-12-04T05:39:30.531Z,68.32
2022-12-04T05:42:00.487Z,60.95
2022-12-04T05:44:30.402Z,57.25
2022-12-04T05:47:00.433Z,52.20
2022-12-04T05:49:35.262Z,57.55
2022-12-04T05:52:07.709Z,56.38
2022-12-04T05:54:38.500Z,53.60
2022-12-04T05:57:09.603Z,51.15
2022-12-04T05:59:39.433Z,56.70
2022-12-04T06:02:09.087Z,54.67
2022-12-04T06:04:40.521Z,61.25
2022-12-04T06:07:11.159Z,55.60
2022-12-04T06:09:41.734Z,51.83
2022-12-04T06:12:11.515Z,54.53
2022-12-04T06:14:42.156Z,48.03
2022-12-04T06:17:11.917Z,55.55
2022-12-04T06:19:41.904Z,55.55
2022-12-04T06:22:11.841Z,55.92
2022-12-04T06:24:42.294Z,57.22
2022-12-04T06:27:27.277Z,55.13
2022-12-04T06:29:58.996Z,54.95
2022-12-04T06:32:29.262Z,58.03
2022-12-04T06:34:59.152Z,58.88
2022-12-04T06:37:28.955Z,59.75
2022-12-04T06:39:59.192Z,57.22
2022-12-04T06:42:29.980Z,58.33
2022-12-04T06:45:00.009Z,59.22
2022-12-04T06:47:30.508Z,59.53
2022-12-04T06:50:00.296Z,56.97
2022-12-04T06:52:30.812Z,54.88
2022-12-04T06:55:00.535Z,56.95
2022-12-04T06:57:30.522Z,55.25
2022-12-04T06:59:59.621Z,53.05
2022-12-04T07:02:28.453Z,55.33
2022-12-04T07:04:58.440Z,52.80
2022-12-04T07:07:27.686Z,56.45
2022-12-04T07:10:00.219Z,56.47
2022-12-04T07:12:34.441Z,53.67
2022-12-04T07:15:06.519Z,53.60
2022-12-04T07:17:38.656Z,50.88
2022-12-04T07:20:08.744Z,50.45
2022-12-04T07:22:41.037Z,49.53
2022-12-04T07:25:13.265Z,47.60
2022-12-04T07:27:42.591Z,45.53
2022-12-04T07:30:15.715Z,45.25
2022-12-04T07:32:45.179Z,46.80
2022-12-04T07:35:14.523Z,49.33
2022-12-04T07:37:43.574Z,48.78
2022-12-04T07:40:13.276Z,48.90
2022-12-04T07:42:42.866Z,46.55
2022-12-04T07:45:11.968Z,47.38
2022-12-04T07:47:41.092Z,47.45
2022-12-04T07:50:11.077Z,45.33
2022-12-04T07:52:41.434Z,45.75
2022-12-04T07:55:10.951Z,45.83
2022-12-04T07:57:40.207Z,44.55
2022-12-04T08:00:10.174Z,45.72
2022-12-04T08:02:42.359Z,47.78
2022-12-04T08:05:11.752Z,48.03
2022-12-04T08:07:40.528Z,46.08
2022-12-04T08:10:10.702Z,41.67
2022-12-04T08:12:39.700Z,47.38
2022-12-04T08:15:09.310Z,47.38
2022-12-04T08:17:38.267Z,44.28
2022-12-04T08:20:07.950Z,46.10
2022-12-04T08:22:37.282Z,46.25
2022-12-04T08:25:06.354Z,48.20
2022-12-04T08:27:37.379Z,48.97
2022-12-04T08:30:07.249Z,54.13
2022-12-04T08:32:36.336Z,54.20
2022-12-04T08:35:05.683Z,55.50
2022-12-04T08:37:34.984Z,53.95
2022-12-04T08:40:04.853Z,52.55
2022-12-04T08:42:34.202Z,51.05
2022-12-04T08:45:03.147Z,47.10
2022-12-04T08:47:32.221Z,42.83
2022-12-04T08:50:01.299Z,42.05
2022-12-04T08:52:30.415Z,41.83
2022-12-04T08:54:59.613Z,35.67
2022-12-04T08:57:28.970Z,34.70
2022-12-04T08:59:58.502Z,34.70
2022-12-04T09:02:28.147Z,31.92
2022-12-04T09:04:57.494Z,34.05
2022-12-04T09:07:26.658Z,37.53
2022-12-04T09:09:55.664Z,34.70
2022-12-04T09:12:25.271Z,37.67
2022-12-04T09:14:54.338Z,40.55
2022-12-04T09:17:23.438Z,35.00
2022-12-04T09:19:55.546Z,37.92
2022-12-04T09:22:40.384Z,36.17
2022-12-04T09:25:18.296Z,35.60
2022-12-04T09:27:47.120Z,35.78
2022-12-04T09:30:16.284Z,38.00
2022-12-04T09:32:45.598Z,38.90
2022-12-04T09:35:15.376Z,38.95
2022-12-04T09:37:44.410Z,37.95
2022-12-04T09:41:08.412Z,39.10
2022-12-04T09:43:49.167Z,39.33
2022-12-04T09:46:28.652Z,38.60
2022-12-04T09:49:00.171Z,37.90
2022-12-04T09:51:30.591Z,39.28
2022-12-04T09:54:06.658Z,38.95
2022-12-04T09:56:36.564Z,39.92
2022-12-04T09:59:24.415Z,40.83
2022-12-04T10:01:58.387Z,42.53
2022-12-04T10:04:27.932Z,41.70
2022-12-04T10:07:16.973Z,43.15
2022-12-04T10:09:57.849Z,43.15
2022-12-04T10:12:48.485Z,44.25
2022-12-04T10:15:35.653Z,42.45
2022-12-04T10:18:23.867Z,44.10
2022-12-04T10:21:19.991Z,42.90
2022-12-04T10:24:23.359Z,41.88
2022-12-04T10:29:27.611Z,42.92
2022-12-04T10:32:15.515Z,45.10
2022-12-04T10:34:47.214Z,43.97
2022-12-04T10:37:27.204Z,46.22
2022-12-04T10:40:04.276Z,45.88
2022-12-04T10:42:54.829Z,51.30
2022-12-04T10:45:25.319Z,45.15
2022-12-04T10:47:54.896Z,46.80
2022-12-04T10:50:26.030Z,46.78
2022-12-04T10:52:54.983Z,46.80
2022-12-04T10:55:35.427Z,44.85
2022-12-04T10:58:04.663Z,47.60
2022-12-04T11:00:36.557Z,47.30
2022-12-04T11:03:26.260Z,46.33
2022-12-04T11:05:59.530Z,46.95
2022-12-04T11:08:35.669Z,46.10
2022-12-04T11:11:12.383Z,47.03
2022-12-04T11:13:43.533Z,47.38
2022-12-04T11:16:37.033Z,50.38
2022-12-04T11:19:27.202Z,51.42
2022-12-04T11:21:59.844Z,54.13
2022-12-04T11:24:38.530Z,55.03
2022-12-04T11:27:17.943Z,55.78
2022-12-04T11:29:49.179Z,62.78
2022-12-04T11:32:28.046Z,63.00
2022-12-04T11:35:02.536Z,57.95
2022-12-04T11:37:35.892Z,57.95
2022-12-04T11:40:18.408Z,62.03
2022-12-04T11:43:01.774Z,55.40
2022-12-04T11:45:31.285Z,56.65
2022-12-04T11:48:03.233Z,55.63
2022-12-04T11:51:08.978Z,58.83
2022-12-04T11:54:18.172Z,57.80
2022-12-04T11:57:15.483Z,57.15
2022-12-04T11:59:58.605Z,57.17
2022-12-04T12:02:43.551Z,57.70
2022-12-04T12:05:49.134Z,60.08
2022-12-04T12:08:47.667Z,64.28
2022-12-04T12:11:30.866Z,70.63
2022-12-04T12:14:26.149Z,69.95
2022-12-04T12:17:13.791Z,69.93
2022-12-04T12:20:05.770Z,69.28
2022-12-04T12:22:53.152Z,73.22
2022-12-04T12:25:59.980Z,73.60
2022-12-04T12:29:06.078Z,73.40
2022-12-04T12:31:43.817Z,70.93
2022-12-04T12:34:36.140Z,74.00
2022-12-04T12:37:37.142Z,75.70
2022-12-04T12:40:44.916Z,79.95
2022-12-04T12:43:22.415Z,74.18
2022-12-04T12:46:03.393Z,73.43
2022-12-04T12:48:58.807Z,73.18
2022-12-04T12:51:52.000Z,71.30
2022-12-04T12:54:21.144Z,70.05
2022-12-04T12:56:56.685Z,71.00
2022-12-04T12:59:29.237Z,68.40
2022-12-04T13:02:00.983Z,74.40
2022-12-04T13:04:38.973Z,75.40
2022-12-04T13:07:21.860Z,77.60
2022-12-04T13:13:11.678Z,70.50
2022-12-04T13:15:55.421Z,76.03
2022-12-04T13:18:42.485Z,76.45
2022-12-04T13:21:30.806Z,78.22
2022-12-04T13:24:21.370Z,77.20
2022-12-04T13:26:53.380Z,80.60
2022-12-04T13:29:31.938Z,80.43
2022-12-04T13:32:29.521Z,82.80
2022-12-04T13:34:58.477Z,81.80
2022-12-04T13:37:36.207Z,81.75
2022-12-04T13:40:23.625Z,83.18
2022-12-04T13:42:52.933Z,81.85
2022-12-04T13:45:34.769Z,87.63
2022-12-04T13:48:05.256Z,95.35
2022-12-04T13:50:40.145Z,96.43
2022-12-04T13:53:33.529Z,92.13
2022-12-04T13:56:07.682Z,86.10
2022-12-04T13:58:39.245Z,88.93
2022-12-04T14:01:29.409Z,91.60
2022-12-04T14:04:00.797Z,87.30
2022-12-04T14:06:43.423Z,89.43
2022-12-04T14:09:28.310Z,82.75
2022-12-04T14:12:05.218Z,87.43
2022-12-04T14:14:56.674Z,86.93
2022-12-04T14:17:40.931Z,86.50
2022-12-04T14:20:27.076Z,90.50
2022-12-04T14:22:56.095Z,89.10
2022-12-04T14:25:35.915Z,90.47
2022-12-04T14:28:29.342Z,89.90
2022-12-04T14:31:16.772Z,91.55
2022-12-04T14:33:51.114Z,92.80
2022-12-04T14:36:27.899Z,95.97
2022-12-04T14:39:09.298Z,97.53
2022-12-04T14:41:40.142Z,95.93
2022-12-04T14:44:27.427Z,91.47
2022-12-04T14:47:18.109Z,97.50
2022-12-04T14:50:11.371Z,95.78
2022-12-04T14:52:45.106Z,96.68
2022-12-04T14:55:26.821Z,95.90
2022-12-04T14:58:32.917Z,94.32
2022-12-04T15:01:21.674Z,100.57
2022-12-04T15:03:59.265Z,106.32
2022-12-04T15:06:30.772Z,110.25
2022-12-04T15:09:24.338Z,119.05
2022-12-04T15:12:14.293Z,120.88
2022-12-04T15:14:48.030Z,115.70
2022-12-04T15:17:19.755Z,119.00
2022-12-04T15:19:49.160Z,116.95
2022-12-04T15:22:29.816Z,117.28
2022-12-04T15:24:59.396Z,112.45
2022-12-04T15:27:32.316Z,116.28
2022-12-04T15:30:03.971Z,123.35
2022-12-04T15:32:34.205Z,120.65
2022-12-04T15:35:10.360Z,116.03
2022-12-04T15:37:39.645Z,130.10
2022-12-04T15:40:13.071Z,133.85
2022-12-04T15:42:42.244Z,136.93
2022-12-04T15:45:11.561Z,135.32
2022-12-04T15:47:54.672Z,139.27
2022-12-04T15:50:28.277Z,133.10
2022-12-04T15:53:13.900Z,116.72
2022-12-04T15:55:53.950Z,109.90
2022-12-04T15:58:38.744Z,109.30
2022-12-04T16:01:14.363Z,115.90
2022-12-04T16:03:44.069Z,112.82
2022-12-04T16:06:26.899Z,116.30
2022-12-04T16:08:58.962Z,110.40
2022-12-04T16:11:39.201Z,110.95
2022-12-04T16:14:16.596Z,107.45
2022-12-04T16:16:51.928Z,115.78
2022-12-04T16:19:39.454Z,107.38
2022-12-04T16:22:20.545Z,110.80
2022-12-04T16:24:50.981Z,108.20
2022-12-04T16:27:24.071Z,111.65
2022-12-04T16:29:53.890Z,105.47
2022-12-04T16:32:28.449Z,107.60
2022-12-04T16:34:57.754Z,112.25
2022-12-04T16:37:29.808Z,109.60
2022-12-04T16:39:59.599Z,108.05
2022-12-04T16:42:30.917Z,109.57
2022-12-04T16:45:00.191Z,106.60
2022-12-04T16:47:29.463Z,110.10
2022-12-04T16:49:58.855Z,108.22
2022-12-04T16:52:28.248Z,109.53
2022-12-04T16:55:00.466Z,113.07
2022-12-04T16:57:32.421Z,113.72
2022-12-04T17:00:01.452Z,114.18
2022-12-04T17:02:30.734Z,110.95
2022-12-04T17:05:00.217Z,108.20
2022-12-04T17:07:29.721Z,106.30
2022-12-04T17:09:58.946Z,104.07
2022-12-04T17:12:27.749Z,106.43
2022-12-04T17:14:57.400Z,105.30
2022-12-04T17:17:26.696Z,106.68
2022-12-04T17:19:55.741Z,103.03
2022-12-04T17:22:27.751Z,103.72
2022-12-04T17:24:57.588Z,103.13
2022-12-04T17:27:27.411Z,100.47
2022-12-04T17:29:56.925Z,97.95
2022-12-04T17:32:26.254Z,106.38
2022-12-04T17:34:56.188Z,104.30
2022-12-04T17:37:25.791Z,99.88
2022-12-04T17:39:55.326Z,96.10
2022-12-04T17:42:24.402Z,154.77
2022-12-04T17:44:53.992Z,152.27
2022-12-04T17:47:23.354Z,131.10
2022-12-04T17:49:52.660Z,110.53
2022-12-04T17:52:23.722Z,106.97
2022-12-04T17:54:53.925Z,107.22
2022-12-04T17:57:26.185Z,101.90
2022-12-04T17:59:55.296Z,104.60
2022-12-04T18:02:24.662Z,106.03
2022-12-04T18:04:56.317Z,108.68
2022-12-04T18:07:25.799Z,104.80
2022-12-04T18:09:55.067Z,120.43
2022-12-04T18:12:24.364Z,116.22
2022-12-04T18:14:54.608Z,126.70
2022-12-04T18:17:23.622Z,126.35
2022-12-04T18:19:52.796Z,120.80
2022-12-04T18:22:21.768Z,120.05
2022-12-04T18:24:51.131Z,120.82
2022-12-04T18:27:20.317Z,123.55
2022-12-04T18:29:49.469Z,123.80
2022-12-04T18:32:18.417Z,119.82
2022-12-04T18:34:48.049Z,121.18
2022-12-04T18:37:16.959Z,124.47
2022-12-04T18:39:45.887Z,127.30
2022-12-04T18:42:14.970Z,127.60
2022-12-04T18:44:43.955Z,122.22
2022-12-04T18:47:13.356Z,128.80
2022-12-04T18:49:42.396Z,128.18
2022-12-04T18:52:11.493Z,131.32
2022-12-04T18:54:43.525Z,132.30
2022-12-04T18:57:12.839Z,137.35
2022-12-04T18:59:41.794Z,140.80
2022-12-04T19:02:11.548Z,141.95
2022-12-04T19:04:40.626Z,138.25
2022-12-04T19:07:10.115Z,139.02
2022-12-04T19:10:09.979Z,139.57
2022-12-04T19:12:30.693Z,144.77
2022-12-04T19:14:59.514Z,149.18
2022-12-04T19:17:28.593Z,201.57
2022-12-04T19:19:57.800Z,278.45
2022-12-04T19:22:27.073Z,279.48
2022-12-04T19:24:56.078Z,274.75
2022-12-04T19:27:25.244Z,223.50
2022-12-04T19:29:54.754Z,186.93
2022-12-04T19:32:24.447Z,185.10
2022-12-04T19:34:55.254Z,170.60
2022-12-04T19:37:24.517Z,169.95
2022-12-04T19:39:53.603Z,160.48
2022-12-04T19:42:22.617Z,155.85
2022-12-04T19:44:51.853Z,164.20
2022-12-04T19:47:21.171Z,157.70
2022-12-04T19:49:49.989Z,149.90
2022-12-04T19:52:19.855Z,160.45
2022-12-04T19:54:48.650Z,148.82
2022-12-04T19:57:17.981Z,143.88
2022-12-04T19:59:47.120Z,145.85
2022-12-04T20:02:16.819Z,142.85
2022-12-04T20:04:45.935Z,145.75
2022-12-04T20:07:15.169Z,148.55
2022-12-04T20:09:48.725Z,150.48
2022-12-04T20:12:24.252Z,145.18
2022-12-04T20:14:53.297Z,146.00
2022-12-04T20:17:23.172Z,203.65
2022-12-04T20:19:52.126Z,161.60
2022-12-04T20:22:21.228Z,158.05
2022-12-04T20:24:50.329Z,163.00
2022-12-04T20:27:20.071Z,219.90
2022-12-04T20:29:48.792Z,171.63
2022-12-04T20:32:18.508Z,175.60
2022-12-04T20:34:47.739Z,182.80
2022-12-04T20:37:16.850Z,164.05
2022-12-04T20:39:45.904Z,164.63
2022-12-04T20:42:16.598Z,156.20
2022-12-04T20:44:45.890Z,157.80
2022-12-04T20:47:15.085Z,159.90
2022-12-04T20:49:44.215Z,167.52
2022-12-04T20:52:13.423Z,161.95
2022-12-04T20:54:42.225Z,166.02
2022-12-04T20:57:12.657Z,167.93
2022-12-04T20:59:42.039Z,170.00
2022-12-04T21:02:12.980Z,181.38
2022-12-04T21:04:42.203Z,167.65
2022-12-04T21:07:11.435Z,172.18
2022-12-04T21:09:41.058Z,198.38
2022-12-04T21:12:29.671Z,205.23
2022-12-04T21:15:17.425Z,184.85
2022-12-04T21:17:46.607Z,180.80
2022-12-04T21:20:15.436Z,182.50
2022-12-04T21:22:44.553Z,182.45
2022-12-04T21:25:13.561Z,191.85
2022-12-04T21:27:42.830Z,190.98
2022-12-04T21:30:12.410Z,200.35
2022-12-04T21:32:41.200Z,198.70
2022-12-04T21:35:11.242Z,203.88
2022-12-04T21:37:39.980Z,199.40
2022-12-04T21:40:09.751Z,200.95
2022-12-04T21:42:39.986Z,194.05
2022-12-04T21:45:09.938Z,185.75
2022-12-04T21:47:38.944Z,184.43
2022-12-04T21:50:09.317Z,177.20
2022-12-04T21:52:38.325Z,183.25
2022-12-04T21:55:07.406Z,183.18
2022-12-04T21:57:36.566Z,183.55
2022-12-04T22:00:06.745Z,172.10
2022-12-04T22:02:37.429Z,177.40
2022-12-04T22:05:06.639Z,179.40
2022-12-04T22:07:35.455Z,183.32
2022-12-04T22:10:10.397Z,173.95
2022-12-04T22:12:49.891Z,175.30
2022-12-04T22:15:20.103Z,180.32
2022-12-04T22:17:49.439Z,181.98
2022-12-04T22:20:19.212Z,194.52
2022-12-04T22:22:48.455Z,211.63
2022-12-04T22:25:17.497Z,209.27
2022-12-04T22:27:47.418Z,218.90
2022-12-04T22:30:16.598Z,205.52
2022-12-04T22:32:45.501Z,211.30
2022-12-04T22:35:15.106Z,216.13
2022-12-04T22:37:44.671Z,213.75
2022-12-04T22:40:16.343Z,235.60
2022-12-04T22:42:46.615Z,243.93
2022-12-04T22:45:15.432Z,242.13
2022-12-04T22:47:44.633Z,237.25
2022-12-04T22:50:13.875Z,236.25
2022-12-04T22:52:43.345Z,238.98
2022-12-04T22:55:12.139Z,239.38
2022-12-04T22:57:41.136Z,238.65
2022-12-04T23:00:10.856Z,238.35
2022-12-04T23:02:39.938Z,258.95
2022-12-04T23:05:09.224Z,282.50
2022-12-04T23:07:39.548Z,303.63
2022-12-04T23:10:09.571Z,302.75
2022-12-04T23:12:38.593Z,303.75
2022-12-04T23:15:08.633Z,282.13
2022-12-04T23:17:38.124Z,290.58
2022-12-04T23:20:07.870Z,283.48
2022-12-04T23:22:37.187Z,288.35
2022-12-04T23:25:06.258Z,279.02
2022-12-04T23:27:35.639Z,278.90
2022-12-04T23:30:05.045Z,291.60
2022-12-04T23:32:34.331Z,279.77
2022-12-04T23:35:03.122Z,289.77
2022-12-04T23:37:32.626Z,281.52
2022-12-04T23:40:01.668Z,283.95
2022-12-04T23:42:34.986Z,292.73
2022-12-04T23:45:04.128Z,287.35
2022-12-04T23:47:33.068Z,300.73
2022-12-04T23:50:02.641Z,315.98
2022-12-04T23:52:31.822Z,302.23
2022-12-04T23:55:01.141Z,302.92
2022-12-04T23:57:31.194Z,300.13
